Time;durP1;ratioP1;P1;durP2;ratioP2;P2;SDS_P1;SDS_P2;PMS_P1;PMS_P2;Temp;Humidity;BMP_temperature;BMP_pressure;BME280_temperature;BME280_humidity;BME280_pressure;Samples;Min_cycle;Max_cycle;Signal;HPM_P1;HPM_P2
2022/09/25 00:02:01;;;;;;;2.57;2.47;;;;;;;;;;5060517;28;20971;-77
2022/09/25 00:04:28;;;;;;;0.70;0.70;;;;;;;;;;5064443;28;20462;-77
2022/09/25 00:06:56;;;;;;;0.73;0.73;;;;;;;;;;5095693;28;20469;-77
2022/09/25 00:09:24;;;;;;;1.07;0.97;;;;;;;;;;5084674;28;20469;-77
2022/09/25 00:11:51;;;;;;;1.47;1.37;;;;;;;;;;5087700;28;20441;-76
2022/09/25 00:14:18;;;;;;;2.20;2.10;;;;;;;;;;5083436;28;20899;-77
2022/09/25 00:16:44;;;;;;;0.80;0.73;;;;;;;;;;5082967;28;20449;-79
2022/09/25 00:22:05;;;;;;;0.90;0.90;;;;;;;;;;5088505;28;20465;-77
2022/09/25 00:24:32;;;;;;;1.00;0.90;;;;;;;;;;5095731;28;20467;-79
2022/09/25 00:27:00;;;;;;;1.40;1.30;;;;;;;;;;5094497;28;20434;-78
2022/09/25 00:29:26;;;;;;;0.70;0.70;;;;;;;;;;5110967;28;20471;-78
2022/09/25 00:31:53;;;;;;;1.30;1.07;;;;;;;;;;5109093;28;20487;-78
2022/09/25 00:34:20;;;;;;;1.30;1.17;;;;;;;;;;5086162;28;21018;-77
2022/09/25 00:36:47;;;;;;;2.07;1.27;;;;;;;;;;5085197;28;20907;-79
2022/09/25 00:39:15;;;;;;;1.50;1.27;;;;;;;;;;5088995;28;20431;-78
2022/09/25 00:41:43;;;;;;;1.33;1.23;;;;;;;;;;5087846;28;20790;-78
2022/09/25 00:44:28;;;;;;;1.20;1.13;;;;;;;;;;5091723;28;20455;-77
2022/09/25 00:46:55;;;;;;;2.17;1.83;;;;;;;;;;5074313;28;20436;-78
2022/09/25 00:49:23;;;;;;;0.83;0.83;;;;;;;;;;5083036;28;20974;-78
2022/09/25 00:51:52;;;;;;;0.70;0.60;;;;;;;;;;5082117;28;20453;-79
2022/09/25 00:54:24;;;;;;;3.80;1.33;;;;;;;;;;5070464;28;20426;-77
2022/09/25 00:56:51;;;;;;;3.07;2.77;;;;;;;;;;5088858;28;20501;-77
2022/09/25 00:59:19;;;;;;;0.70;0.67;;;;;;;;;;5090191;28;20946;-77
2022/09/25 01:01:46;;;;;;;6.20;1.67;;;;;;;;;;5085803;28;20446;-78
2022/09/25 01:04:14;;;;;;;1.03;1.00;;;;;;;;;;5085116;28;20479;-77
2022/09/25 01:06:41;;;;;;;1.87;1.47;;;;;;;;;;5078241;28;20491;-77
2022/09/25 01:09:07;;;;;;;0.90;0.90;;;;;;;;;;5089650;28;20456;-78
2022/09/25 01:11:35;;;;;;;1.00;1.00;;;;;;;;;;5086933;28;20806;-78
2022/09/25 01:14:04;;;;;;;1.27;1.20;;;;;;;;;;5077702;28;20442;-78
2022/09/25 01:16:35;;;;;;;1.10;1.00;;;;;;;;;;5075767;28;20454;-79
2022/09/25 01:19:09;;;;;;;1.73;1.63;;;;;;;;;;5056124;28;20486;-79
2022/09/25 01:21:38;;;;;;;1.57;1.47;;;;;;;;;;5073366;28;20460;-79
2022/09/25 01:24:23;;;;;;;1.10;0.90;;;;;;;;;;5079991;28;20465;-78
2022/09/25 01:27:05;;;;;;;0.73;0.73;;;;;;;;;;5079873;28;20469;-79
2022/09/25 01:29:39;;;;;;;0.70;0.60;;;;;;;;;;5081745;28;20540;-79
2022/09/25 01:32:21;;;;;;;0.77;0.77;;;;;;;;;;5061909;28;20471;-79
2022/09/25 01:34:53;;;;;;;3.30;3.00;;;;;;;;;;5082796;28;20827;-80
2022/09/25 01:37:25;;;;;;;0.70;0.70;;;;;;;;;;5084444;28;20508;-79
2022/09/25 01:39:55;;;;;;;1.27;1.20;;;;;;;;;;5079225;28;20453;-80
2022/09/25 01:42:27;;;;;;;1.20;1.10;;;;;;;;;;5079803;28;20875;-82
2022/09/25 01:44:56;;;;;;;5.37;2.40;;;;;;;;;;5077284;28;20531;-81
2022/09/25 01:47:25;;;;;;;1.27;0.80;;;;;;;;;;5078997;28;20443;-81
2022/09/25 01:49:53;;;;;;;0.70;0.70;;;;;;;;;;5080895;28;20437;-82
2022/09/25 01:52:24;;;;;;;0.70;0.70;;;;;;;;;;5082118;28;21019;-82
2022/09/25 01:54:53;;;;;;;1.53;1.10;;;;;;;;;;5061396;28;20923;-81
2022/09/25 01:57:22;;;;;;;1.67;1.17;;;;;;;;;;5098579;28;20938;-81
2022/09/25 01:59:53;;;;;;;1.70;1.60;;;;;;;;;;5079575;28;20984;-81
2022/09/25 02:02:23;;;;;;;0.70;0.70;;;;;;;;;;5086656;28;20449;-82
2022/09/25 02:04:54;;;;;;;0.60;0.60;;;;;;;;;;5059820;28;20473;-81
2022/09/25 02:07:26;;;;;;;1.83;1.17;;;;;;;;;;5082664;28;20472;-81
2022/09/25 02:09:55;;;;;;;1.10;1.10;;;;;;;;;;5092896;28;20441;-81
2022/09/25 02:12:24;;;;;;;1.53;1.27;;;;;;;;;;5081640;28;20459;-82
2022/09/25 02:14:53;;;;;;;0.70;0.60;;;;;;;;;;5079859;28;20447;-82
2022/09/25 02:20:32;;;;;;;0.80;0.80;;;;;;;;;;5055770;28;20550;-81
2022/09/25 02:23:06;;;;;;;0.60;0.60;;;;;;;;;;5069639;28;20440;-81
2022/09/25 02:25:39;;;;;;;0.70;0.67;;;;;;;;;;5049086;28;20528;-82
2022/09/25 02:28:07;;;;;;;0.70;0.70;;;;;;;;;;5070412;28;20462;-80
2022/09/25 02:30:44;;;;;;;1.03;0.93;;;;;;;;;;5065635;28;20440;-81
2022/09/25 02:33:17;;;;;;;0.70;0.67;;;;;;;;;;5079859;28;20449;-80
2022/09/25 02:35:49;;;;;;;1.53;1.10;;;;;;;;;;5085275;28;20468;-81
2022/09/25 02:38:20;;;;;;;0.63;0.60;;;;;;;;;;5089618;28;20819;-81
2022/09/25 02:40:55;;;;;;;1.83;1.43;;;;;;;;;;5077560;28;20442;-81
2022/09/25 02:43:33;;;;;;;1.03;0.97;;;;;;;;;;5064980;28;20447;-81
2022/09/25 02:46:06;;;;;;;2.60;1.97;;;;;;;;;;5063314;28;21062;-81
2022/09/25 02:48:44;;;;;;;3.03;2.80;;;;;;;;;;5077203;28;20454;-79
2022/09/25 02:51:19;;;;;;;0.70;0.60;;;;;;;;;;5082424;28;20510;-80
2022/09/25 02:53:53;;;;;;;0.63;0.63;;;;;;;;;;5084895;28;20454;-82
2022/09/25 02:56:25;;;;;;;1.27;1.20;;;;;;;;;;5065100;28;20453;-82
2022/09/25 02:59:01;;;;;;;0.67;0.60;;;;;;;;;;5076924;28;20538;-81
2022/09/25 03:01:34;;;;;;;0.70;0.70;;;;;;;;;;5074094;28;20445;-80
2022/09/25 03:04:06;;;;;;;0.90;0.90;;;;;;;;;;5077358;28;20863;-81
2022/09/25 03:06:37;;;;;;;0.60;0.60;;;;;;;;;;5076573;28;20532;-81
2022/09/25 03:09:08;;;;;;;0.70;0.60;;;;;;;;;;5074952;28;20479;-81
2022/09/25 03:11:42;;;;;;;0.70;0.70;;;;;;;;;;5061146;28;20440;-81
2022/09/25 03:14:13;;;;;;;1.33;0.73;;;;;;;;;;5065564;28;20966;-81
2022/09/25 03:16:44;;;;;;;0.70;0.70;;;;;;;;;;5080630;28;20442;-82
2022/09/25 03:19:13;;;;;;;0.70;0.60;;;;;;;;;;5083263;28;20446;-80
2022/09/25 03:21:40;;;;;;;0.90;0.90;;;;;;;;;;5084435;28;20467;-81
2022/09/25 03:24:08;;;;;;;1.67;1.57;;;;;;;;;;5081567;28;20556;-81
2022/09/25 03:26:35;;;;;;;0.67;0.60;;;;;;;;;;5082939;28;20434;-80
2022/09/25 03:29:03;;;;;;;0.60;0.60;;;;;;;;;;5084982;28;20514;-80
2022/09/25 03:31:30;;;;;;;1.20;1.10;;;;;;;;;;5061217;28;20463;-79
2022/09/25 03:33:57;;;;;;;0.60;0.60;;;;;;;;;;5073362;28;20434;-81
2022/09/25 03:36:26;;;;;;;1.07;1.07;;;;;;;;;;5077086;28;21044;-80
2022/09/25 03:38:57;;;;;;;0.60;0.60;;;;;;;;;;5080200;28;20455;-81
2022/09/25 03:41:25;;;;;;;1.40;1.10;;;;;;;;;;5081159;28;20436;-81
2022/09/25 03:43:52;;;;;;;0.60;0.60;;;;;;;;;;5061052;28;20866;-80
2022/09/25 03:46:20;;;;;;;0.67;0.67;;;;;;;;;;5081507;28;20456;-81
2022/09/25 03:48:47;;;;;;;0.70;0.70;;;;;;;;;;5087180;28;20434;-79
2022/09/25 03:51:14;;;;;;;0.60;0.60;;;;;;;;;;5083649;28;20973;-80
2022/09/25 03:53:42;;;;;;;1.00;0.93;;;;;;;;;;5079401;28;20852;-81
2022/09/25 03:56:11;;;;;;;0.70;0.70;;;;;;;;;;5098004;28;20529;-81
2022/09/25 03:58:38;;;;;;;0.70;0.70;;;;;;;;;;5084466;28;20449;-81
2022/09/25 04:01:05;;;;;;;0.70;0.70;;;;;;;;;;5056130;28;20445;-80
2022/09/25 04:03:33;;;;;;;0.90;0.90;;;;;;;;;;5073839;28;20958;-80
2022/09/25 04:06:03;;;;;;;0.60;0.60;;;;;;;;;;5079636;28;20537;-80
2022/09/25 04:08:31;;;;;;;0.70;0.70;;;;;;;;;;5098173;28;20800;-81
2022/09/25 04:11:00;;;;;;;0.60;0.60;;;;;;;;;;5084151;28;20447;-80
2022/09/25 04:13:31;;;;;;;1.00;0.90;;;;;;;;;;5083280;28;20442;-80
2022/09/25 04:15:59;;;;;;;0.63;0.60;;;;;;;;;;5097033;28;20491;-81
2022/09/25 04:18:30;;;;;;;0.67;0.60;;;;;;;;;;5078244;28;20481;-80
2022/09/25 04:20:57;;;;;;;1.13;1.07;;;;;;;;;;5085863;28;20443;-81
2022/09/25 04:23:24;;;;;;;0.80;0.80;;;;;;;;;;5049565;28;20443;-80
2022/09/25 04:25:50;;;;;;;0.60;0.60;;;;;;;;;;5064670;28;20585;-81
2022/09/25 04:28:19;;;;;;;0.70;0.60;;;;;;;;;;5092476;28;20423;-79
2022/09/25 04:30:46;;;;;;;0.70;0.70;;;;;;;;;;5072133;28;20427;-79
2022/09/25 04:35:58;;;;;;;0.70;0.70;;;;;;;;;;5083894;28;20515;-80
2022/09/25 04:38:25;;;;;;;0.60;0.60;;;;;;;;;;5076432;28;20879;-80
2022/09/25 04:40:52;;;;;;;0.70;0.63;;;;;;;;;;5085542;28;20926;-79
2022/09/25 04:43:21;;;;;;;0.67;0.67;;;;;;;;;;5089432;28;20434;-79
2022/09/25 04:45:50;;;;;;;0.87;0.70;;;;;;;;;;5096362;28;20464;-80
2022/09/25 04:48:17;;;;;;;0.70;0.60;;;;;;;;;;5085457;28;20793;-79
2022/09/25 04:50:46;;;;;;;0.60;0.60;;;;;;;;;;5079634;28;20472;-78
2022/09/25 04:53:13;;;;;;;0.70;0.63;;;;;;;;;;5090324;28;20443;-78
2022/09/25 04:55:40;;;;;;;1.00;0.90;;;;;;;;;;5083312;28;20532;-78
2022/09/25 04:58:10;;;;;;;0.70;0.70;;;;;;;;;;5087522;28;20430;-79
2022/09/25 05:00:41;;;;;;;1.00;0.90;;;;;;;;;;5093697;28;20451;-79
2022/09/25 05:03:08;;;;;;;0.70;0.60;;;;;;;;;;5100335;28;20565;-79
2022/09/25 05:05:35;;;;;;;0.60;0.60;;;;;;;;;;5081225;28;20487;-79
2022/09/25 05:08:02;;;;;;;1.23;1.00;;;;;;;;;;5086837;28;20461;-79
2022/09/25 05:10:30;;;;;;;0.63;0.60;;;;;;;;;;5085166;28;20431;-79
2022/09/25 05:12:57;;;;;;;1.13;0.97;;;;;;;;;;5087092;28;20451;-78
2022/09/25 05:15:25;;;;;;;0.60;0.60;;;;;;;;;;5082397;28;20950;-79
2022/09/25 05:17:59;;;;;;;0.70;0.63;;;;;;;;;;5090721;28;20444;-79
2022/09/25 05:20:26;;;;;;;0.70;0.60;;;;;;;;;;5083985;28;21092;-79
2022/09/25 05:22:53;;;;;;;0.70;0.63;;;;;;;;;;5080464;28;20458;-79
2022/09/25 05:25:22;;;;;;;0.60;0.60;;;;;;;;;;5087137;28;20499;-79
2022/09/25 05:27:49;;;;;;;0.70;0.70;;;;;;;;;;5092583;28;20543;-79
2022/09/25 05:30:16;;;;;;;0.70;0.70;;;;;;;;;;5085054;28;20434;-78
2022/09/25 05:32:48;;;;;;;0.70;0.70;;;;;;;;;;5076460;28;20443;-78
2022/09/25 05:35:17;;;;;;;0.60;0.60;;;;;;;;;;5100079;28;20449;-79
2022/09/25 05:37:44;;;;;;;0.60;0.50;;;;;;;;;;5049314;28;20467;-79
2022/09/25 05:40:11;;;;;;;0.70;0.63;;;;;;;;;;5083300;28;20946;-79
2022/09/25 05:42:38;;;;;;;0.63;0.60;;;;;;;;;;5084377;28;21023;-79
2022/09/25 05:45:06;;;;;;;0.70;0.70;;;;;;;;;;5080185;28;20470;-78
2022/09/25 05:47:33;;;;;;;0.60;0.60;;;;;;;;;;5093491;28;20525;-78
2022/09/25 05:50:00;;;;;;;0.70;0.60;;;;;;;;;;5100141;28;21075;-78
2022/09/25 05:52:28;;;;;;;0.60;0.60;;;;;;;;;;5088414;28;20556;-78
2022/09/25 05:54:55;;;;;;;0.60;0.60;;;;;;;;;;5077039;28;20933;-79
2022/09/25 05:57:22;;;;;;;1.37;1.27;;;;;;;;;;5094532;28;20473;-78
2022/09/25 05:59:49;;;;;;;0.70;0.70;;;;;;;;;;5086069;28;20436;-79
2022/09/25 06:02:16;;;;;;;0.70;0.60;;;;;;;;;;5085420;28;20918;-78
2022/09/25 06:04:42;;;;;;;0.60;0.60;;;;;;;;;;5081616;28;20474;-79
2022/09/25 06:07:11;;;;;;;0.70;0.70;;;;;;;;;;5081461;28;20984;-79
2022/09/25 06:09:38;;;;;;;0.70;0.70;;;;;;;;;;5087635;28;20483;-79
2022/09/25 06:12:06;;;;;;;0.70;0.67;;;;;;;;;;5081370;28;20843;-80
2022/09/25 06:14:34;;;;;;;0.70;0.67;;;;;;;;;;5090591;28;20528;-79
2022/09/25 06:17:00;;;;;;;0.60;0.60;;;;;;;;;;5100036;28;20457;-79
2022/09/25 06:19:28;;;;;;;0.70;0.60;;;;;;;;;;5060361;28;20461;-79
2022/09/25 06:21:56;;;;;;;0.60;0.60;;;;;;;;;;5094504;28;20466;-79
2022/09/25 06:24:23;;;;;;;0.60;0.60;;;;;;;;;;5077004;28;20445;-78
2022/09/25 06:26:54;;;;;;;0.60;0.60;;;;;;;;;;5094449;28;20473;-78
2022/09/25 06:29:21;;;;;;;0.60;0.60;;;;;;;;;;5081047;28;20424;-78
2022/09/25 06:31:47;;;;;;;0.70;0.60;;;;;;;;;;5085412;28;20921;-78
2022/09/25 06:34:14;;;;;;;0.60;0.60;;;;;;;;;;5081794;28;20490;-79
2022/09/25 06:36:43;;;;;;;1.20;1.10;;;;;;;;;;5089972;28;20512;-79
2022/09/25 06:39:10;;;;;;;0.63;0.60;;;;;;;;;;5085685;28;20960;-79
2022/09/25 06:41:36;;;;;;;0.60;0.60;;;;;;;;;;5080741;28;20941;-79
2022/09/25 06:44:05;;;;;;;0.67;0.63;;;;;;;;;;5083211;28;20442;-78
2022/09/25 06:46:33;;;;;;;0.60;0.60;;;;;;;;;;5082377;28;20997;-78
2022/09/25 06:49:01;;;;;;;0.60;0.53;;;;;;;;;;5081704;28;20811;-78
2022/09/25 06:51:33;;;;;;;0.67;0.63;;;;;;;;;;5100822;28;20449;-78
2022/09/25 06:54:00;;;;;;;0.70;0.60;;;;;;;;;;5082188;28;20538;-79
2022/09/25 06:56:27;;;;;;;2.70;2.50;;;;;;;;;;5095391;28;20454;-79
2022/09/25 06:58:54;;;;;;;0.63;0.60;;;;;;;;;;5081758;28;20942;-78
2022/09/25 07:01:22;;;;;;;0.60;0.60;;;;;;;;;;5081387;28;20446;-79
2022/09/25 07:03:49;;;;;;;0.63;0.60;;;;;;;;;;5082873;28;20468;-78
2022/09/25 07:06:17;;;;;;;0.60;0.60;;;;;;;;;;5087773;28;20478;-78
2022/09/25 07:08:44;;;;;;;0.70;0.70;;;;;;;;;;5072910;28;20463;-79
2022/09/25 07:11:12;;;;;;;0.60;0.60;;;;;;;;;;5074905;28;20447;-79
2022/09/25 07:13:39;;;;;;;1.23;1.03;;;;;;;;;;5086065;28;20449;-78
2022/09/25 07:16:08;;;;;;;0.60;0.60;;;;;;;;;;5088272;28;20542;-78
2022/09/25 07:18:37;;;;;;;0.60;0.50;;;;;;;;;;5099863;28;20449;-78
2022/09/25 07:21:04;;;;;;;0.60;0.60;;;;;;;;;;5080536;28;20460;-78
2022/09/25 07:23:32;;;;;;;0.60;0.60;;;;;;;;;;5082987;28;20445;-78
2022/09/25 07:26:03;;;;;;;0.87;0.87;;;;;;;;;;5083770;28;20531;-77
2022/09/25 07:28:30;;;;;;;0.60;0.60;;;;;;;;;;5085885;28;20519;-79
2022/09/25 07:30:56;;;;;;;0.70;0.60;;;;;;;;;;5075554;28;20924;-79
2022/09/25 07:33:23;;;;;;;0.60;0.60;;;;;;;;;;5089407;28;20435;-78
2022/09/25 07:35:54;;;;;;;0.60;0.60;;;;;;;;;;5098918;28;20518;-78
2022/09/25 07:38:21;;;;;;;1.60;1.50;;;;;;;;;;5090849;28;20437;-77
2022/09/25 07:40:51;;;;;;;0.70;0.70;;;;;;;;;;5088398;28;20442;-78
2022/09/25 07:43:18;;;;;;;0.60;0.60;;;;;;;;;;5094290;28;20867;-79
2022/09/25 07:45:48;;;;;;;0.70;0.70;;;;;;;;;;5081525;28;20465;-78
2022/09/25 07:48:14;;;;;;;0.60;0.60;;;;;;;;;;5061413;28;20534;-79
2022/09/25 07:50:41;;;;;;;0.60;0.60;;;;;;;;;;5080351;28;20471;-78
2022/09/25 07:53:11;;;;;;;0.70;0.70;;;;;;;;;;5066112;28;20454;-78
2022/09/25 07:55:37;;;;;;;0.60;0.60;;;;;;;;;;5087001;28;20424;-78
2022/09/25 07:58:04;;;;;;;0.70;0.70;;;;;;;;;;5089641;28;20434;-76
2022/09/25 08:00:31;;;;;;;0.60;0.60;;;;;;;;;;5087081;28;20445;-76
2022/09/25 08:02:58;;;;;;;0.60;0.60;;;;;;;;;;5084829;28;20435;-77
2022/09/25 08:05:25;;;;;;;0.60;0.60;;;;;;;;;;5072313;28;20555;-77
2022/09/25 08:07:53;;;;;;;0.60;0.60;;;;;;;;;;5089229;28;20525;-78
2022/09/25 08:10:21;;;;;;;0.60;0.60;;;;;;;;;;5080674;28;20439;-77
2022/09/25 08:12:48;;;;;;;0.70;0.70;;;;;;;;;;5062877;28;20439;-76
2022/09/25 08:15:16;;;;;;;0.63;0.60;;;;;;;;;;5086507;28;20448;-77
2022/09/25 08:17:43;;;;;;;0.90;0.90;;;;;;;;;;5066521;28;20444;-78
2022/09/25 08:20:12;;;;;;;0.70;0.60;;;;;;;;;;5071393;28;20455;-78
2022/09/25 08:22:39;;;;;;;1.13;1.13;;;;;;;;;;5081782;28;20548;-79
2022/09/25 08:25:06;;;;;;;0.60;0.60;;;;;;;;;;5079479;28;20447;-78
2022/09/25 08:27:39;;;;;;;0.60;0.60;;;;;;;;;;5093872;28;20553;-78
2022/09/25 08:30:07;;;;;;;0.70;0.70;;;;;;;;;;5066490;28;20445;-77
2022/09/25 08:32:35;;;;;;;0.60;0.60;;;;;;;;;;5087781;28;20484;-79
2022/09/25 08:35:03;;;;;;;0.60;0.60;;;;;;;;;;5080857;28;20803;-77
2022/09/25 08:37:32;;;;;;;0.80;0.80;;;;;;;;;;5061432;28;20965;-76
2022/09/25 08:40:00;;;;;;;0.70;0.70;;;;;;;;;;5086075;28;21014;-77
2022/09/25 08:42:31;;;;;;;0.70;0.70;;;;;;;;;;5085471;28;20438;-77
2022/09/25 08:50:49;;;;;;;0.70;0.60;;;;;;;;;;5082336;28;20547;-76
2022/09/25 08:53:18;;;;;;;0.70;0.60;;;;;;;;;;5091590;28;20439;-77
2022/09/25 08:58:32;;;;;;;0.70;0.70;;;;;;;;;;5076736;28;20464;-76
2022/09/25 09:01:03;;;;;;;0.70;0.60;;;;;;;;;;5079657;28;20935;-77
2022/09/25 09:03:31;;;;;;;0.70;0.60;;;;;;;;;;5060567;28;20449;-78
2022/09/25 09:06:00;;;;;;;0.70;0.60;;;;;;;;;;5079687;28;20487;-78
2022/09/25 09:08:29;;;;;;;0.80;0.73;;;;;;;;;;5081306;28;20479;-78
2022/09/25 09:10:58;;;;;;;0.97;0.80;;;;;;;;;;5084302;28;20448;-77
2022/09/25 09:13:27;;;;;;;0.83;0.83;;;;;;;;;;5080394;28;20442;-78
2022/09/25 09:15:58;;;;;;;0.70;0.60;;;;;;;;;;5086821;28;20441;-78
2022/09/25 09:18:27;;;;;;;0.90;0.80;;;;;;;;;;5081138;28;20460;-78
2022/09/25 09:20:55;;;;;;;0.70;0.70;;;;;;;;;;5081304;28;20989;-78
2022/09/25 09:23:22;;;;;;;0.70;0.70;;;;;;;;;;5077680;28;20784;-78
2022/09/25 09:25:59;;;;;;;0.70;0.70;;;;;;;;;;5099430;28;20546;-77
2022/09/25 09:28:36;;;;;;;0.80;0.80;;;;;;;;;;5078960;28;20440;-79
2022/09/25 09:31:07;;;;;;;0.70;0.70;;;;;;;;;;5076509;28;20440;-79
2022/09/25 09:33:40;;;;;;;0.70;0.70;;;;;;;;;;5062428;28;20547;-79
2022/09/25 09:36:11;;;;;;;0.70;0.70;;;;;;;;;;5093547;28;20462;-79
2022/09/25 09:38:44;;;;;;;0.70;0.70;;;;;;;;;;5080981;28;20965;-78
2022/09/25 09:41:14;;;;;;;0.70;0.67;;;;;;;;;;5084915;28;20430;-79
2022/09/25 09:43:50;;;;;;;0.70;0.60;;;;;;;;;;5080002;28;20434;-76
2022/09/25 09:46:27;;;;;;;0.70;0.60;;;;;;;;;;5076638;28;20463;-78
2022/09/25 09:49:00;;;;;;;0.80;0.70;;;;;;;;;;5091984;28;20427;-79
2022/09/25 09:51:30;;;;;;;0.80;0.70;;;;;;;;;;5088441;28;20445;-79
2022/09/25 09:54:01;;;;;;;0.70;0.70;;;;;;;;;;5081886;28;20435;-78
2022/09/25 09:56:29;;;;;;;0.80;0.70;;;;;;;;;;5097651;28;20997;-76
2022/09/25 09:58:58;;;;;;;0.70;0.60;;;;;;;;;;5063791;28;20446;-79
2022/09/25 10:01:28;;;;;;;0.80;0.70;;;;;;;;;;5063960;28;20440;-78
2022/09/25 10:04:09;;;;;;;0.80;0.80;;;;;;;;;;5079826;28;20947;-78
2022/09/25 10:06:38;;;;;;;0.80;0.73;;;;;;;;;;5068368;28;20534;-78
2022/09/25 10:09:07;;;;;;;0.70;0.70;;;;;;;;;;5089196;28;20432;-78
2022/09/25 10:11:33;;;;;;;0.80;0.70;;;;;;;;;;5058755;28;20454;-76
2022/09/25 10:14:02;;;;;;;1.00;0.90;;;;;;;;;;5071474;28;20410;-77
2022/09/25 10:16:29;;;;;;;0.80;0.77;;;;;;;;;;5087542;28;20984;-76
2022/09/25 10:18:59;;;;;;;0.80;0.70;;;;;;;;;;5092989;28;20446;-76
2022/09/25 10:21:30;;;;;;;0.80;0.73;;;;;;;;;;5085606;28;20775;-75
2022/09/25 10:23:58;;;;;;;0.70;0.60;;;;;;;;;;5067901;28;20428;-77
2022/09/25 10:26:26;;;;;;;0.80;0.70;;;;;;;;;;5086990;28;20437;-78
2022/09/25 10:28:56;;;;;;;0.70;0.60;;;;;;;;;;5097385;28;20425;-77
2022/09/25 10:31:24;;;;;;;0.70;0.60;;;;;;;;;;5088889;28;20917;-77
2022/09/25 10:33:59;;;;;;;0.70;0.70;;;;;;;;;;5081396;28;20479;-77
2022/09/25 10:36:50;;;;;;;0.80;0.70;;;;;;;;;;5084834;28;20440;-77
2022/09/25 10:39:28;;;;;;;0.70;0.70;;;;;;;;;;5078071;28;20962;-76
2022/09/25 10:42:36;;;;;;;0.80;0.70;;;;;;;;;;5075114;28;20469;-77
2022/09/25 10:45:25;;;;;;;0.80;0.70;;;;;;;;;;5054194;28;20490;-77
2022/09/25 10:50:37;;;;;;;0.77;0.70;;;;;;;;;;5076184;28;20450;-79
2022/09/25 10:53:25;;;;;;;0.70;0.60;;;;;;;;;;5078125;28;20483;-79
2022/09/25 10:55:59;;;;;;;0.70;0.70;;;;;;;;;;5080285;28;20447;-78
2022/09/25 10:58:29;;;;;;;0.70;0.60;;;;;;;;;;5097891;28;20450;-78
2022/09/25 11:00:58;;;;;;;0.80;0.60;;;;;;;;;;5086564;28;20852;-79
2022/09/25 11:03:27;;;;;;;0.80;0.60;;;;;;;;;;5084564;28;20493;-78
2022/09/25 11:05:54;;;;;;;0.70;0.60;;;;;;;;;;5076911;28;20503;-78
2022/09/25 11:08:24;;;;;;;0.80;0.80;;;;;;;;;;5083054;28;20918;-79
2022/09/25 11:10:56;;;;;;;0.70;0.70;;;;;;;;;;5081763;28;20979;-78
2022/09/25 11:13:24;;;;;;;0.80;0.80;;;;;;;;;;5074142;28;20443;-79
2022/09/25 11:15:55;;;;;;;0.70;0.60;;;;;;;;;;5090249;28;20464;-76
2022/09/25 11:18:36;;;;;;;0.70;0.60;;;;;;;;;;5073167;28;20497;-77
2022/09/25 11:21:04;;;;;;;0.70;0.60;;;;;;;;;;5085431;28;20498;-78
2022/09/25 11:23:34;;;;;;;0.80;0.70;;;;;;;;;;5080011;28;20431;-78
2022/09/25 11:26:04;;;;;;;0.80;0.70;;;;;;;;;;5082751;28;20439;-78
2022/09/25 11:28:35;;;;;;;0.70;0.60;;;;;;;;;;5068440;28;20437;-76
2022/09/25 11:31:09;;;;;;;0.70;0.70;;;;;;;;;;5083078;28;20533;-78
2022/09/25 11:33:41;;;;;;;0.80;0.77;;;;;;;;;;5088524;28;20437;-79
2022/09/25 11:36:10;;;;;;;0.80;0.70;;;;;;;;;;5103014;28;20512;-79
2022/09/25 11:41:29;;;;;;;0.77;0.67;;;;;;;;;;5081341;28;20799;-78
2022/09/25 11:44:00;;;;;;;0.80;0.80;;;;;;;;;;5083847;28;20447;-78
2022/09/25 11:46:34;;;;;;;0.70;0.60;;;;;;;;;;5080257;28;20553;-78
2022/09/25 11:49:14;;;;;;;0.70;0.70;;;;;;;;;;5083922;28;20537;-77
2022/09/25 11:51:56;;;;;;;0.70;0.60;;;;;;;;;;5088417;28;20470;-77
2022/09/25 11:54:29;;;;;;;0.73;0.70;;;;;;;;;;5038001;28;20447;-77
2022/09/25 11:57:03;;;;;;;0.70;0.63;;;;;;;;;;5086211;28;20400;-77
2022/09/25 11:59:37;;;;;;;0.80;0.70;;;;;;;;;;5085034;28;20485;-78
2022/09/25 12:02:11;;;;;;;0.70;0.63;;;;;;;;;;5086300;28;20532;-78
2022/09/25 12:04:59;;;;;;;0.70;0.60;;;;;;;;;;5093532;28;20452;-78
2022/09/25 12:07:38;;;;;;;0.80;0.70;;;;;;;;;;5072915;28;20555;-77
2022/09/25 12:10:11;;;;;;;0.70;0.70;;;;;;;;;;5087883;28;20905;-77
2022/09/25 12:12:41;;;;;;;0.80;0.80;;;;;;;;;;5095328;28;20831;-79
2022/09/25 12:15:13;;;;;;;0.70;0.60;;;;;;;;;;5089385;28;20429;-78
2022/09/25 12:17:43;;;;;;;1.10;1.00;;;;;;;;;;5092095;28;20422;-79
2022/09/25 12:20:13;;;;;;;0.70;0.70;;;;;;;;;;5087128;28;20441;-78
2022/09/25 12:22:46;;;;;;;0.80;0.73;;;;;;;;;;5089999;28;20461;-78
2022/09/25 12:25:20;;;;;;;1.43;0.90;;;;;;;;;;5090444;28;20397;-79
2022/09/25 12:27:53;;;;;;;0.90;0.90;;;;;;;;;;5079604;28;20552;-76
2022/09/25 12:30:22;;;;;;;0.77;0.63;;;;;;;;;;5081035;28;20450;-78
2022/09/25 12:32:57;;;;;;;0.70;0.60;;;;;;;;;;5066341;28;20434;-79
2022/09/25 12:35:31;;;;;;;0.80;0.73;;;;;;;;;;5085193;28;20420;-79
2022/09/25 12:38:04;;;;;;;1.00;0.80;;;;;;;;;;5087154;28;20516;-79
2022/09/25 12:40:35;;;;;;;0.80;0.80;;;;;;;;;;5087539;28;20458;-77
2022/09/25 12:43:06;;;;;;;0.80;0.80;;;;;;;;;;5072421;28;20483;-77
2022/09/25 12:45:37;;;;;;;0.80;0.80;;;;;;;;;;5105930;28;20524;-79
2022/09/25 12:48:08;;;;;;;0.70;0.70;;;;;;;;;;5102168;28;20441;-79
2022/09/25 12:50:39;;;;;;;0.87;0.87;;;;;;;;;;5083773;28;20462;-78
2022/09/25 12:53:10;;;;;;;1.00;0.90;;;;;;;;;;5084577;28;20468;-78
2022/09/25 12:55:44;;;;;;;0.73;0.70;;;;;;;;;;5085779;28;20441;-77
2022/09/25 12:58:17;;;;;;;0.80;0.77;;;;;;;;;;5095187;28;20430;-78
2022/09/25 13:00:45;;;;;;;0.80;0.77;;;;;;;;;;5080062;28;20444;-77
2022/09/25 13:03:16;;;;;;;0.80;0.73;;;;;;;;;;5082589;28;20443;-77
2022/09/25 13:05:45;;;;;;;0.70;0.60;;;;;;;;;;5087421;28;20477;-77
2022/09/25 13:08:15;;;;;;;1.20;1.10;;;;;;;;;;5082710;28;20759;-75
2022/09/25 13:10:45;;;;;;;0.70;0.70;;;;;;;;;;5101473;28;20414;-79
2022/09/25 13:13:18;;;;;;;0.70;0.70;;;;;;;;;;5096118;28;20478;-78
2022/09/25 13:15:47;;;;;;;0.80;0.70;;;;;;;;;;5088648;28;20408;-78
2022/09/25 13:18:15;;;;;;;0.70;0.70;;;;;;;;;;5082370;28;20520;-78
2022/09/25 13:20:46;;;;;;;0.80;0.73;;;;;;;;;;5080964;28;20442;-79
2022/09/25 13:23:14;;;;;;;0.80;0.70;;;;;;;;;;5092220;28;20438;-78
2022/09/25 13:25:45;;;;;;;0.80;0.70;;;;;;;;;;5092615;28;20443;-77
2022/09/25 13:28:17;;;;;;;0.80;0.73;;;;;;;;;;5087145;28;20631;-79
2022/09/25 13:30:56;;;;;;;0.80;0.80;;;;;;;;;;5093762;28;20437;-78
2022/09/25 13:33:24;;;;;;;0.80;0.80;;;;;;;;;;5088903;28;20409;-77
2022/09/25 13:36:04;;;;;;;0.70;0.70;;;;;;;;;;5066995;28;20483;-78
2022/09/25 13:41:18;;;;;;;0.93;0.93;;;;;;;;;;5080925;28;20452;-78
2022/09/25 13:43:45;;;;;;;1.00;0.80;;;;;;;;;;5086290;28;20414;-76
2022/09/25 13:46:22;;;;;;;0.80;0.70;;;;;;;;;;5098233;28;20439;-79
2022/09/25 13:48:54;;;;;;;0.80;0.73;;;;;;;;;;5074122;28;20512;-77
2022/09/25 13:51:34;;;;;;;1.80;1.03;;;;;;;;;;5075014;28;20532;-78
2022/09/25 13:54:02;;;;;;;1.00;0.90;;;;;;;;;;5085929;28;20422;-78
2022/09/25 13:59:36;;;;;;;0.80;0.70;;;;;;;;;;5143789;27;21117;-78
2022/09/25 14:02:36;;;;;;;0.80;0.80;;;;;;;;;;5140295;27;20444;-77
2022/09/25 14:05:04;;;;;;;0.80;0.80;;;;;;;;;;5142853;27;20399;-77
2022/09/25 14:07:32;;;;;;;0.80;0.80;;;;;;;;;;5159423;27;20428;-78
2022/09/25 14:09:59;;;;;;;0.80;0.80;;;;;;;;;;5164569;27;20498;-78
2022/09/25 14:12:30;;;;;;;0.90;0.70;;;;;;;;;;5143852;27;20438;-78
2022/09/25 14:15:00;;;;;;;0.90;0.80;;;;;;;;;;5147810;27;20537;-78
2022/09/25 14:17:29;;;;;;;0.73;0.67;;;;;;;;;;5170066;27;20508;-79
2022/09/25 14:19:58;;;;;;;0.80;0.70;;;;;;;;;;5139220;27;20511;-78
2022/09/25 14:22:28;;;;;;;0.80;0.73;;;;;;;;;;5158700;27;21048;-79
2022/09/25 14:24:55;;;;;;;1.90;1.00;;;;;;;;;;5148204;27;20436;-78
2022/09/25 14:27:25;;;;;;;0.73;0.70;;;;;;;;;;5148356;27;20785;-78
2022/09/25 14:30:02;;;;;;;0.80;0.80;;;;;;;;;;5135178;27;20415;-78
2022/09/25 14:32:36;;;;;;;0.80;0.70;;;;;;;;;;5147196;27;20434;-79
2022/09/25 14:35:34;;;;;;;1.00;0.90;;;;;;;;;;5147010;27;20426;-79
2022/09/25 14:38:15;;;;;;;1.20;1.10;;;;;;;;;;5148705;27;20515;-78
2022/09/25 14:40:49;;;;;;;0.80;0.60;;;;;;;;;;5144425;27;20442;-79
2022/09/25 14:43:28;;;;;;;0.80;0.80;;;;;;;;;;5120739;27;20453;-79
2022/09/25 14:45:59;;;;;;;0.80;0.70;;;;;;;;;;5146397;27;20439;-78
2022/09/25 14:48:28;;;;;;;0.80;0.80;;;;;;;;;;5142163;27;20446;-80
2022/09/25 14:50:58;;;;;;;0.80;0.60;;;;;;;;;;5140032;27;20468;-79
2022/09/25 14:53:27;;;;;;;0.80;0.70;;;;;;;;;;5145921;27;20444;-78
2022/09/25 14:55:55;;;;;;;0.80;0.70;;;;;;;;;;5119106;27;20446;-79
2022/09/25 14:58:25;;;;;;;0.90;0.90;;;;;;;;;;5145999;27;20990;-76
2022/09/25 15:00:54;;;;;;;0.80;0.70;;;;;;;;;;5159406;27;20427;-79
2022/09/25 15:03:26;;;;;;;0.70;0.60;;;;;;;;;;5144271;27;20422;-78
2022/09/25 15:05:54;;;;;;;0.70;0.60;;;;;;;;;;5154794;27;20479;-77
2022/09/25 15:08:28;;;;;;;0.70;0.70;;;;;;;;;;5152349;27;20436;-77
2022/09/25 15:11:02;;;;;;;0.70;0.60;;;;;;;;;;5143122;27;20532;-77
2022/09/25 15:13:32;;;;;;;0.70;0.60;;;;;;;;;;5145825;27;20437;-77
2022/09/25 15:18:53;;;;;;;0.70;0.60;;;;;;;;;;5134248;27;20554;-77
2022/09/25 15:21:22;;;;;;;0.80;0.70;;;;;;;;;;5147569;27;20465;-77
2022/09/25 15:23:51;;;;;;;1.00;0.70;;;;;;;;;;5133102;27;20455;-77
2022/09/25 15:26:19;;;;;;;0.80;0.70;;;;;;;;;;5147683;27;20463;-76
2022/09/25 15:28:46;;;;;;;0.73;0.67;;;;;;;;;;5130571;27;20431;-78
2022/09/25 15:31:14;;;;;;;0.70;0.63;;;;;;;;;;5128191;27;20473;-77
2022/09/25 15:33:40;;;;;;;0.70;0.60;;;;;;;;;;5137928;27;20442;-76